San Aurelio — A8PC9 — position and weather

sailwx.info

Track history (hours):
 
Tides and Currents Weather Stations Pressure Air Temp Water Temp Dewpoint Dewpoint Depression Visibility Wind Speed Wind Dir Waves Ship Positions

San Aurelio

Last reported at 2015-Apr-27 06:00 UTC. Time now 2015-Apr-28 03:46 UTC.
Position N 01°24' E 105°06'.

Length 186 m; draft 9.9 m.

Type: Cargo ship. MMSI: 636091534.

Wind from 350 at 10 knots

Waves 0.5 meters (2 feet), 2 second period

Barometer 1011.5 mb
Air temperature 32.0 ° C
Visibility: greater than 10.8 NM
Dewpoint 26.0 ° C
Water temperature 29.0 ° C

Date/timePositionNaut miles runAvg speedWind from/ knotsBaromVisibWave heightAir tempDewpointWater temp
2015-Apr-27 06:00N 01°24' E 105°06'6810.5 350 / 101011.510.8 0.532.026.029.0
2015-Apr-26 23:33N 01°14' E 103°59'1311.6
2015-Apr-26 22:28N 01°09' E 103°47'2 0.1
2015-Apr-26 08:21N 01°10' E 103°48'6 6.9
2015-Apr-26 07:33N 01°15' E 103°51'2 1.8
2015-Apr-26 06:29N 01°16' E 103°50'0 0.0
2015-Apr-26 05:26N 01°16' E 103°50'0 0.0
2015-Apr-26 04:32N 01°16' E 103°50'0 0.0
2015-Apr-26 02:20N 01°16' E 103°50'0 0.0
2015-Apr-26 01:29N 01°16' E 103°50'0 0.0
2015-Apr-26 00:14N 01°16' E 103°50'0 0.0
2015-Apr-25 23:26N 01°16' E 103°50'0 0.0
2015-Apr-25 22:23N 01°16' E 103°50'0 0.0
2015-Apr-25 21:23N 01°16' E 103°50'0 0.0
2015-Apr-25 20:32N 01°16' E 103°50'0 0.0
2015-Apr-25 19:32N 01°16' E 103°50'0 0.0
2015-Apr-25 18:29N 01°16' E 103°50'0 0.0
2015-Apr-25 17:32N 01°16' E 103°50'0 0.0
2015-Apr-25 16:29N 01°16' E 103°50'0 0.0
2015-Apr-25 15:23N 01°16' E 103°50'0 0.0
2015-Apr-25 14:05N 01°16' E 103°50'0 0.0
2015-Apr-25 13:29N 01°16' E 103°50'0 0.0
2015-Apr-25 12:32N 01°16' E 103°50'0 0.0
2015-Apr-25 11:32N 01°16' E 103°50'0 0.0
2015-Apr-25 10:23N 01°16' E 103°50'0 0.0
2015-Apr-25 08:20N 01°16' E 103°50'0 0.0
2015-Apr-25 07:11N 01°16' E 103°50'0 0.0
2015-Apr-25 06:29N 01°16' E 103°50'0 0.0
2015-Apr-25 05:32N 01°16' E 103°50'0 0.0
2015-Apr-25 04:32N 01°16' E 103°50'0 0.4
2015-Apr-25 03:33N 01°16' E 103°50'4 3.7
2015-Apr-25 02:33N 01°14' E 103°53'10 9.7
2015-Apr-25 01:33N 01°15' E 104°03'  
Track history (hours):
 
Tides and Currents Weather Stations Pressure Air Temp Water Temp Dewpoint Dewpoint Depression Visibility Wind Speed Wind Dir Waves Ship Positions

San Aurelio

Last reported at 2015-Apr-27 06:00 UTC. Time now 2015-Apr-28 03:46 UTC.
Position N 01°24' E 105°06'.

Length 186 m; draft 9.9 m.

Type: Cargo ship. MMSI: 636091534.

Wind from 350 at 10 knots

Waves 0.5 meters (2 feet), 2 second period

Barometer 1011.5 mb
Air temperature 32.0 ° C
Visibility: greater than 10.8 NM
Dewpoint 26.0 ° C
Water temperature 29.0 ° C

Date/timePositionNaut miles runAvg speedWind from/ knotsBaromVisibWave heightAir tempDewpointWater temp
2015-Apr-27 06:00N 01°24' E 105°06'6810.5 350 / 101011.510.8 0.532.026.029.0
2015-Apr-26 23:33N 01°14' E 103°59'1311.6
2015-Apr-26 22:28N 01°09' E 103°47'2 0.1
2015-Apr-26 08:21N 01°10' E 103°48'6 6.9
2015-Apr-26 07:33N 01°15' E 103°51'2 1.8
2015-Apr-26 06:29N 01°16' E 103°50'0 0.0
2015-Apr-26 05:26N 01°16' E 103°50'0 0.0
2015-Apr-26 04:32N 01°16' E 103°50'0 0.0
2015-Apr-26 02:20N 01°16' E 103°50'0 0.0
2015-Apr-26 01:29N 01°16' E 103°50'0 0.0
2015-Apr-26 00:14N 01°16' E 103°50'0 0.0
2015-Apr-25 23:26N 01°16' E 103°50'0 0.0
2015-Apr-25 22:23N 01°16' E 103°50'0 0.0
2015-Apr-25 21:23N 01°16' E 103°50'0 0.0
2015-Apr-25 20:32N 01°16' E 103°50'0 0.0
2015-Apr-25 19:32N 01°16' E 103°50'0 0.0
2015-Apr-25 18:29N 01°16' E 103°50'0 0.0
2015-Apr-25 17:32N 01°16' E 103°50'0 0.0
2015-Apr-25 16:29N 01°16' E 103°50'0 0.0
2015-Apr-25 15:23N 01°16' E 103°50'0 0.0
2015-Apr-25 14:05N 01°16' E 103°50'0 0.0
2015-Apr-25 13:29N 01°16' E 103°50'0 0.0
2015-Apr-25 12:32N 01°16' E 103°50'0 0.0
2015-Apr-25 11:32N 01°16' E 103°50'0 0.0
2015-Apr-25 10:23N 01°16' E 103°50'0 0.0
2015-Apr-25 08:20N 01°16' E 103°50'0 0.0
2015-Apr-25 07:11N 01°16' E 103°50'0 0.0
2015-Apr-25 06:29N 01°16' E 103°50'0 0.0
2015-Apr-25 05:32N 01°16' E 103°50'0 0.0
2015-Apr-25 04:32N 01°16' E 103°50'0 0.4
2015-Apr-25 03:33N 01°16' E 103°50'4 3.7
2015-Apr-25 02:33N 01°14' E 103°53'10 9.7
2015-Apr-25 01:33N 01°15' E 104°03'  

Dump ship's entire track history